sensor_id;sensor_type;location;lat;lon;timestamp;P1;durP1;ratioP1;P2;durP2;ratioP2
41677;SDS011;27364;49.026;8.712;2023-05-07T00:00:23;1.90;;;1.20;;
41677;SDS011;27364;49.026;8.712;2023-05-07T00:02:49;2.63;;;1.63;;
41677;SDS011;27364;49.026;8.712;2023-05-07T00:05:14;3.53;;;1.33;;
41677;SDS011;27364;49.026;8.712;2023-05-07T00:07:40;2.28;;;1.38;;
41677;SDS011;27364;49.026;8.712;2023-05-07T00:10:06;1.67;;;1.30;;
41677;SDS011;27364;49.026;8.712;2023-05-07T00:12:32;2.80;;;1.75;;
41677;SDS011;27364;49.026;8.712;2023-05-07T00:15:02;2.20;;;1.42;;
41677;SDS011;27364;49.026;8.712;2023-05-07T00:17:28;2.22;;;1.55;;
41677;SDS011;27364;49.026;8.712;2023-05-07T00:19:55;2.60;;;1.60;;
41677;SDS011;27364;49.026;8.712;2023-05-07T00:22:20;2.47;;;1.58;;
41677;SDS011;27364;49.026;8.712;2023-05-07T00:24:46;3.58;;;1.90;;
41677;SDS011;27364;49.026;8.712;2023-05-07T00:27:12;2.20;;;1.60;;
41677;SDS011;27364;49.026;8.712;2023-05-07T00:29:37;2.80;;;1.92;;
41677;SDS011;27364;49.026;8.712;2023-05-07T00:32:03;2.60;;;1.80;;
41677;SDS011;27364;49.026;8.712;2023-05-07T00:34:28;2.38;;;1.50;;
41677;SDS011;27364;49.026;8.712;2023-05-07T00:36:54;3.13;;;1.80;;
41677;SDS011;27364;49.026;8.712;2023-05-07T00:39:20;2.45;;;1.60;;
41677;SDS011;27364;49.026;8.712;2023-05-07T00:41:45;3.40;;;1.90;;
41677;SDS011;27364;49.026;8.712;2023-05-07T00:44:11;2.55;;;1.52;;
41677;SDS011;27364;49.026;8.712;2023-05-07T00:46:36;2.40;;;1.50;;
41677;SDS011;27364;49.026;8.712;2023-05-07T00:49:02;2.38;;;1.63;;
41677;SDS011;27364;49.026;8.712;2023-05-07T00:51:28;2.45;;;1.58;;
41677;SDS011;27364;49.026;8.712;2023-05-07T00:53:55;2.38;;;1.52;;
41677;SDS011;27364;49.026;8.712;2023-05-07T00:56:21;3.28;;;1.65;;
41677;SDS011;27364;49.026;8.712;2023-05-07T00:58:47;3.50;;;1.92;;
41677;SDS011;27364;49.026;8.712;2023-05-07T01:01:13;2.85;;;1.58;;
41677;SDS011;27364;49.026;8.712;2023-05-07T01:03:40;2.55;;;1.70;;
41677;SDS011;27364;49.026;8.712;2023-05-07T01:06:06;3.30;;;1.90;;
41677;SDS011;27364;49.026;8.712;2023-05-07T01:08:34;3.20;;;2.00;;
41677;SDS011;27364;49.026;8.712;2023-05-07T01:11:00;3.47;;;2.00;;
41677;SDS011;27364;49.026;8.712;2023-05-07T01:13:26;3.00;;;1.88;;
41677;SDS011;27364;49.026;8.712;2023-05-07T01:15:52;3.38;;;2.20;;
41677;SDS011;27364;49.026;8.712;2023-05-07T01:18:18;3.38;;;1.90;;
41677;SDS011;27364;49.026;8.712;2023-05-07T01:20:44;3.08;;;2.00;;
41677;SDS011;27364;49.026;8.712;2023-05-07T01:23:10;2.65;;;1.80;;
41677;SDS011;27364;49.026;8.712;2023-05-07T01:25:36;3.33;;;2.00;;
41677;SDS011;27364;49.026;8.712;2023-05-07T01:28:02;3.58;;;2.00;;
41677;SDS011;27364;49.026;8.712;2023-05-07T01:30:27;2.30;;;1.63;;
41677;SDS011;27364;49.026;8.712;2023-05-07T01:33:08;2.58;;;1.75;;
41677;SDS011;27364;49.026;8.712;2023-05-07T01:35:37;2.92;;;1.85;;
41677;SDS011;27364;49.026;8.712;2023-05-07T01:38:05;2.75;;;1.88;;
41677;SDS011;27364;49.026;8.712;2023-05-07T01:40:31;2.85;;;1.73;;
41677;SDS011;27364;49.026;8.712;2023-05-07T01:42:59;2.80;;;1.80;;
41677;SDS011;27364;49.026;8.712;2023-05-07T01:45:24;3.67;;;2.10;;
41677;SDS011;27364;49.026;8.712;2023-05-07T01:47:50;6.05;;;1.77;;
41677;SDS011;27364;49.026;8.712;2023-05-07T01:50:18;3.40;;;2.03;;
41677;SDS011;27364;49.026;8.712;2023-05-07T01:52:45;2.92;;;2.03;;
41677;SDS011;27364;49.026;8.712;2023-05-07T01:55:11;2.60;;;1.60;;
41677;SDS011;27364;49.026;8.712;2023-05-07T01:57:37;3.03;;;1.85;;
41677;SDS011;27364;49.026;8.712;2023-05-07T02:00:03;3.65;;;1.92;;
41677;SDS011;27364;49.026;8.712;2023-05-07T02:02:30;3.00;;;1.90;;
41677;SDS011;27364;49.026;8.712;2023-05-07T02:04:55;3.10;;;2.00;;
41677;SDS011;27364;49.026;8.712;2023-05-07T02:07:21;3.20;;;2.03;;
41677;SDS011;27364;49.026;8.712;2023-05-07T02:09:47;3.28;;;2.13;;
41677;SDS011;27364;49.026;8.712;2023-05-07T02:12:12;4.78;;;1.90;;
41677;SDS011;27364;49.026;8.712;2023-05-07T02:14:37;2.10;;;1.50;;
41677;SDS011;27364;49.026;8.712;2023-05-07T02:17:03;3.72;;;2.00;;
41677;SDS011;27364;49.026;8.712;2023-05-07T02:19:28;2.67;;;1.92;;
41677;SDS011;27364;49.026;8.712;2023-05-07T02:21:54;3.53;;;2.05;;
41677;SDS011;27364;49.026;8.712;2023-05-07T02:24:20;3.50;;;1.67;;
41677;SDS011;27364;49.026;8.712;2023-05-07T02:26:45;7.60;;;1.95;;
41677;SDS011;27364;49.026;8.712;2023-05-07T02:29:11;2.63;;;1.48;;
41677;SDS011;27364;49.026;8.712;2023-05-07T02:31:36;2.55;;;1.50;;
41677;SDS011;27364;49.026;8.712;2023-05-07T02:34:02;6.57;;;1.77;;
41677;SDS011;27364;49.026;8.712;2023-05-07T02:36:28;5.43;;;2.28;;
41677;SDS011;27364;49.026;8.712;2023-05-07T02:38:54;10.60;;;2.55;;
41677;SDS011;27364;49.026;8.712;2023-05-07T02:41:20;3.30;;;2.22;;
41677;SDS011;27364;49.026;8.712;2023-05-07T02:43:45;7.30;;;1.95;;
41677;SDS011;27364;49.026;8.712;2023-05-07T02:46:11;197.82;;;6.60;;
41677;SDS011;27364;49.026;8.712;2023-05-07T02:48:37;2.92;;;1.80;;
41677;SDS011;27364;49.026;8.712;2023-05-07T02:51:02;6.82;;;1.80;;
41677;SDS011;27364;49.026;8.712;2023-05-07T02:53:28;3.72;;;2.03;;
41677;SDS011;27364;49.026;8.712;2023-05-07T02:55:58;3.05;;;2.00;;
41677;SDS011;27364;49.026;8.712;2023-05-07T02:58:25;3.47;;;1.88;;
41677;SDS011;27364;49.026;8.712;2023-05-07T03:00:51;3.00;;;1.83;;
41677;SDS011;27364;49.026;8.712;2023-05-07T03:03:17;3.72;;;1.77;;
41677;SDS011;27364;49.026;8.712;2023-05-07T03:05:43;2.83;;;1.90;;
41677;SDS011;27364;49.026;8.712;2023-05-07T03:08:09;3.58;;;2.10;;
41677;SDS011;27364;49.026;8.712;2023-05-07T03:10:35;7.20;;;2.10;;
41677;SDS011;27364;49.026;8.712;2023-05-07T03:13:01;13.63;;;2.17;;
41677;SDS011;27364;49.026;8.712;2023-05-07T03:15:27;7.15;;;2.10;;
41677;SDS011;27364;49.026;8.712;2023-05-07T03:17:52;20.40;;;4.38;;
41677;SDS011;27364;49.026;8.712;2023-05-07T03:20:18;5.63;;;1.98;;
41677;SDS011;27364;49.026;8.712;2023-05-07T03:22:44;4.03;;;1.75;;
41677;SDS011;27364;49.026;8.712;2023-05-07T03:25:09;23.85;;;2.83;;
41677;SDS011;27364;49.026;8.712;2023-05-07T03:27:35;5.70;;;1.98;;
41677;SDS011;27364;49.026;8.712;2023-05-07T03:30:01;6.40;;;2.15;;
41677;SDS011;27364;49.026;8.712;2023-05-07T03:32:26;9.40;;;2.35;;
41677;SDS011;27364;49.026;8.712;2023-05-07T03:34:52;40.63;;;3.38;;
41677;SDS011;27364;49.026;8.712;2023-05-07T03:37:18;2.63;;;1.77;;
41677;SDS011;27364;49.026;8.712;2023-05-07T03:39:43;10.93;;;2.33;;
41677;SDS011;27364;49.026;8.712;2023-05-07T03:42:09;5.22;;;1.70;;
41677;SDS011;27364;49.026;8.712;2023-05-07T03:44:35;2.97;;;1.90;;
41677;SDS011;27364;49.026;8.712;2023-05-07T03:47:01;7.00;;;2.03;;
41677;SDS011;27364;49.026;8.712;2023-05-07T03:49:27;17.70;;;2.55;;
41677;SDS011;27364;49.026;8.712;2023-05-07T03:51:53;3.42;;;2.15;;
41677;SDS011;27364;49.026;8.712;2023-05-07T03:54:18;10.73;;;1.92;;
41677;SDS011;27364;49.026;8.712;2023-05-07T03:56:44;11.40;;;2.45;;
41677;SDS011;27364;49.026;8.712;2023-05-07T03:59:09;2.60;;;1.63;;
41677;SDS011;27364;49.026;8.712;2023-05-07T04:01:35;4.55;;;1.80;;
41677;SDS011;27364;49.026;8.712;2023-05-07T04:04:00;8.32;;;1.92;;
41677;SDS011;27364;49.026;8.712;2023-05-07T04:06:26;2.88;;;1.58;;
41677;SDS011;27364;49.026;8.712;2023-05-07T04:08:52;7.47;;;1.70;;
41677;SDS011;27364;49.026;8.712;2023-05-07T04:11:18;5.38;;;1.73;;
41677;SDS011;27364;49.026;8.712;2023-05-07T04:13:43;5.85;;;1.58;;
41677;SDS011;27364;49.026;8.712;2023-05-07T04:16:09;3.08;;;1.48;;
41677;SDS011;27364;49.026;8.712;2023-05-07T04:18:34;2.08;;;1.45;;
41677;SDS011;27364;49.026;8.712;2023-05-07T04:21:00;3.05;;;1.70;;
41677;SDS011;27364;49.026;8.712;2023-05-07T04:23:26;3.08;;;1.80;;
41677;SDS011;27364;49.026;8.712;2023-05-07T04:25:51;1.90;;;1.20;;
41677;SDS011;27364;49.026;8.712;2023-05-07T04:28:17;2.70;;;1.50;;
41677;SDS011;27364;49.026;8.712;2023-05-07T04:30:42;3.25;;;1.73;;
41677;SDS011;27364;49.026;8.712;2023-05-07T04:33:08;7.70;;;2.20;;
41677;SDS011;27364;49.026;8.712;2023-05-07T04:35:33;4.72;;;1.88;;
41677;SDS011;27364;49.026;8.712;2023-05-07T04:38:00;6.25;;;2.00;;
41677;SDS011;27364;49.026;8.712;2023-05-07T04:40:26;2.67;;;1.70;;
41677;SDS011;27364;49.026;8.712;2023-05-07T04:42:52;4.43;;;1.70;;
41677;SDS011;27364;49.026;8.712;2023-05-07T04:45:18;2.65;;;1.35;;
41677;SDS011;27364;49.026;8.712;2023-05-07T04:47:43;2.03;;;1.50;;
41677;SDS011;27364;49.026;8.712;2023-05-07T04:50:09;2.30;;;1.55;;
41677;SDS011;27364;49.026;8.712;2023-05-07T04:52:35;2.30;;;1.48;;
41677;SDS011;27364;49.026;8.712;2023-05-07T04:55:01;3.38;;;1.90;;
41677;SDS011;27364;49.026;8.712;2023-05-07T04:57:27;2.72;;;1.70;;
41677;SDS011;27364;49.026;8.712;2023-05-07T04:59:53;4.30;;;2.00;;
41677;SDS011;27364;49.026;8.712;2023-05-07T05:02:19;2.67;;;1.75;;
41677;SDS011;27364;49.026;8.712;2023-05-07T05:04:44;3.13;;;2.10;;
41677;SDS011;27364;49.026;8.712;2023-05-07T05:07:10;3.00;;;2.00;;
41677;SDS011;27364;49.026;8.712;2023-05-07T05:09:35;3.03;;;1.80;;
41677;SDS011;27364;49.026;8.712;2023-05-07T05:12:01;2.10;;;1.50;;
41677;SDS011;27364;49.026;8.712;2023-05-07T05:14:26;2.70;;;1.70;;
41677;SDS011;27364;49.026;8.712;2023-05-07T05:16:52;2.67;;;1.65;;
41677;SDS011;27364;49.026;8.712;2023-05-07T05:19:17;2.35;;;1.50;;
41677;SDS011;27364;49.026;8.712;2023-05-07T05:21:43;1.90;;;1.48;;
41677;SDS011;27364;49.026;8.712;2023-05-07T05:24:08;1.77;;;1.23;;
41677;SDS011;27364;49.026;8.712;2023-05-07T05:26:34;1.52;;;1.10;;
41677;SDS011;27364;49.026;8.712;2023-05-07T05:29:00;1.88;;;1.25;;
41677;SDS011;27364;49.026;8.712;2023-05-07T05:31:25;2.60;;;1.33;;
41677;SDS011;27364;49.026;8.712;2023-05-07T05:33:51;2.53;;;1.60;;
41677;SDS011;27364;49.026;8.712;2023-05-07T05:36:16;1.63;;;1.10;;
41677;SDS011;27364;49.026;8.712;2023-05-07T05:38:42;1.95;;;1.33;;
41677;SDS011;27364;49.026;8.712;2023-05-07T05:41:07;1.75;;;1.27;;
41677;SDS011;27364;49.026;8.712;2023-05-07T05:43:33;1.88;;;1.30;;
41677;SDS011;27364;49.026;8.712;2023-05-07T05:45:58;1.98;;;1.35;;
41677;SDS011;27364;49.026;8.712;2023-05-07T05:48:25;2.05;;;1.40;;
41677;SDS011;27364;49.026;8.712;2023-05-07T05:50:50;1.95;;;1.08;;
41677;SDS011;27364;49.026;8.712;2023-05-07T05:53:16;3.38;;;1.70;;
41677;SDS011;27364;49.026;8.712;2023-05-07T05:55:41;1.70;;;1.30;;
41677;SDS011;27364;49.026;8.712;2023-05-07T05:58:07;1.85;;;1.10;;
41677;SDS011;27364;49.026;8.712;2023-05-07T06:00:34;2.08;;;1.48;;
41677;SDS011;27364;49.026;8.712;2023-05-07T06:03:00;2.47;;;1.40;;
41677;SDS011;27364;49.026;8.712;2023-05-07T06:05:25;2.65;;;1.48;;
41677;SDS011;27364;49.026;8.712;2023-05-07T06:07:51;2.60;;;1.38;;
41677;SDS011;27364;49.026;8.712;2023-05-07T06:10:16;1.65;;;1.25;;
41677;SDS011;27364;49.026;8.712;2023-05-07T06:12:42;1.52;;;1.15;;
41677;SDS011;27364;49.026;8.712;2023-05-07T06:15:08;1.58;;;1.20;;
41677;SDS011;27364;49.026;8.712;2023-05-07T06:17:34;1.80;;;1.20;;
41677;SDS011;27364;49.026;8.712;2023-05-07T06:20:00;1.70;;;1.40;;
41677;SDS011;27364;49.026;8.712;2023-05-07T06:22:25;1.35;;;1.10;;
41677;SDS011;27364;49.026;8.712;2023-05-07T06:24:51;2.10;;;1.33;;
41677;SDS011;27364;49.026;8.712;2023-05-07T06:27:16;2.45;;;1.17;;
41677;SDS011;27364;49.026;8.712;2023-05-07T06:29:42;2.78;;;1.30;;
41677;SDS011;27364;49.026;8.712;2023-05-07T06:32:08;1.58;;;1.20;;
41677;SDS011;27364;49.026;8.712;2023-05-07T06:34:34;1.33;;;0.98;;
41677;SDS011;27364;49.026;8.712;2023-05-07T06:37:00;2.22;;;1.17;;
41677;SDS011;27364;49.026;8.712;2023-05-07T06:39:26;1.33;;;1.00;;
41677;SDS011;27364;49.026;8.712;2023-05-07T06:41:51;2.10;;;1.25;;
41677;SDS011;27364;49.026;8.712;2023-05-07T06:44:17;1.45;;;1.13;;
41677;SDS011;27364;49.026;8.712;2023-05-07T06:46:43;1.77;;;1.30;;
41677;SDS011;27364;49.026;8.712;2023-05-07T06:49:08;1.80;;;1.13;;
41677;SDS011;27364;49.026;8.712;2023-05-07T06:51:34;1.10;;;1.00;;
41677;SDS011;27364;49.026;8.712;2023-05-07T06:53:59;1.48;;;1.10;;
41677;SDS011;27364;49.026;8.712;2023-05-07T06:56:25;1.65;;;1.00;;
41677;SDS011;27364;49.026;8.712;2023-05-07T06:58:50;1.98;;;1.30;;
41677;SDS011;27364;49.026;8.712;2023-05-07T07:01:16;1.33;;;1.00;;
41677;SDS011;27364;49.026;8.712;2023-05-07T07:03:41;2.67;;;1.10;;
41677;SDS011;27364;49.026;8.712;2023-05-07T07:06:07;0.90;;;0.77;;
41677;SDS011;27364;49.026;8.712;2023-05-07T07:08:32;2.08;;;1.23;;
41677;SDS011;27364;49.026;8.712;2023-05-07T07:10:59;1.73;;;1.10;;
41677;SDS011;27364;49.026;8.712;2023-05-07T07:13:24;1.33;;;1.10;;
41677;SDS011;27364;49.026;8.712;2023-05-07T07:15:51;0.70;;;0.70;;
41677;SDS011;27364;49.026;8.712;2023-05-07T07:18:16;2.00;;;1.10;;
41677;SDS011;27364;49.026;8.712;2023-05-07T07:20:42;1.08;;;0.75;;
41677;SDS011;27364;49.026;8.712;2023-05-07T07:23:09;1.30;;;1.00;;
41677;SDS011;27364;49.026;8.712;2023-05-07T07:25:35;1.55;;;1.00;;
41677;SDS011;27364;49.026;8.712;2023-05-07T07:28:00;1.45;;;1.02;;
41677;SDS011;27364;49.026;8.712;2023-05-07T07:30:26;0.77;;;0.75;;
41677;SDS011;27364;49.026;8.712;2023-05-07T07:32:52;1.52;;;1.15;;
41677;SDS011;27364;49.026;8.712;2023-05-07T07:35:17;2.47;;;1.50;;
41677;SDS011;27364;49.026;8.712;2023-05-07T07:37:43;7.07;;;1.23;;
41677;SDS011;27364;49.026;8.712;2023-05-07T07:40:08;1.02;;;0.95;;
41677;SDS011;27364;49.026;8.712;2023-05-07T07:42:34;0.85;;;0.73;;
41677;SDS011;27364;49.026;8.712;2023-05-07T07:45:00;1.15;;;0.95;;
41677;SDS011;27364;49.026;8.712;2023-05-07T07:47:26;1.42;;;0.95;;
41677;SDS011;27364;49.026;8.712;2023-05-07T07:49:51;2.47;;;1.42;;
41677;SDS011;27364;49.026;8.712;2023-05-07T07:52:17;2.70;;;1.02;;
41677;SDS011;27364;49.026;8.712;2023-05-07T07:54:44;0.90;;;0.73;;
41677;SDS011;27364;49.026;8.712;2023-05-07T07:57:10;1.35;;;0.90;;
41677;SDS011;27364;49.026;8.712;2023-05-07T07:59:36;0.85;;;0.75;;
41677;SDS011;27364;49.026;8.712;2023-05-07T08:02:01;0.90;;;0.70;;
41677;SDS011;27364;49.026;8.712;2023-05-07T08:04:27;1.38;;;1.05;;
41677;SDS011;27364;49.026;8.712;2023-05-07T08:06:52;1.42;;;1.00;;
41677;SDS011;27364;49.026;8.712;2023-05-07T08:09:19;2.38;;;1.42;;
41677;SDS011;27364;49.026;8.712;2023-05-07T08:11:45;1.20;;;1.00;;
41677;SDS011;27364;49.026;8.712;2023-05-07T08:14:11;1.77;;;1.27;;
41677;SDS011;27364;49.026;8.712;2023-05-07T08:16:36;3.78;;;1.25;;
41677;SDS011;27364;49.026;8.712;2023-05-07T08:19:02;0.95;;;0.90;;
41677;SDS011;27364;49.026;8.712;2023-05-07T08:21:28;1.27;;;1.05;;
41677;SDS011;27364;49.026;8.712;2023-05-07T08:23:54;0.98;;;0.80;;
41677;SDS011;27364;49.026;8.712;2023-05-07T08:26:19;1.17;;;0.90;;
41677;SDS011;27364;49.026;8.712;2023-05-07T08:28:45;1.05;;;0.93;;
41677;SDS011;27364;49.026;8.712;2023-05-07T08:31:10;1.25;;;0.90;;
41677;SDS011;27364;49.026;8.712;2023-05-07T08:33:36;2.65;;;1.38;;
41677;SDS011;27364;49.026;8.712;2023-05-07T08:36:03;0.85;;;0.77;;
41677;SDS011;27364;49.026;8.712;2023-05-07T08:38:29;1.08;;;0.90;;
41677;SDS011;27364;49.026;8.712;2023-05-07T08:40:55;0.93;;;0.82;;
41677;SDS011;27364;49.026;8.712;2023-05-07T08:43:20;1.00;;;0.75;;
41677;SDS011;27364;49.026;8.712;2023-05-07T08:45:47;1.03;;;0.80;;
41677;SDS011;27364;49.026;8.712;2023-05-07T08:48:16;1.45;;;1.00;;
41677;SDS011;27364;49.026;8.712;2023-05-07T08:50:42;1.63;;;1.00;;
41677;SDS011;27364;49.026;8.712;2023-05-07T08:53:08;1.17;;;0.90;;
41677;SDS011;27364;49.026;8.712;2023-05-07T08:55:33;2.15;;;1.05;;
41677;SDS011;27364;49.026;8.712;2023-05-07T08:57:59;2.10;;;1.08;;
41677;SDS011;27364;49.026;8.712;2023-05-07T09:00:26;1.20;;;0.80;;
41677;SDS011;27364;49.026;8.712;2023-05-07T09:02:52;1.20;;;0.90;;
41677;SDS011;27364;49.026;8.712;2023-05-07T09:05:18;1.58;;;0.98;;
41677;SDS011;27364;49.026;8.712;2023-05-07T09:07:44;0.80;;;0.75;;
41677;SDS011;27364;49.026;8.712;2023-05-07T09:10:11;1.60;;;1.15;;
41677;SDS011;27364;49.026;8.712;2023-05-07T09:12:37;1.17;;;0.93;;
41677;SDS011;27364;49.026;8.712;2023-05-07T09:15:04;1.45;;;1.02;;
41677;SDS011;27364;49.026;8.712;2023-05-07T09:17:30;2.22;;;1.25;;
41677;SDS011;27364;49.026;8.712;2023-05-07T09:19:56;1.02;;;0.88;;
41677;SDS011;27364;49.026;8.712;2023-05-07T09:22:21;1.48;;;1.10;;
41677;SDS011;27364;49.026;8.712;2023-05-07T09:24:47;1.05;;;0.80;;
41677;SDS011;27364;49.026;8.712;2023-05-07T09:27:13;1.17;;;0.90;;
41677;SDS011;27364;49.026;8.712;2023-05-07T09:29:39;0.80;;;0.80;;
41677;SDS011;27364;49.026;8.712;2023-05-07T09:32:05;1.60;;;1.17;;
41677;SDS011;27364;49.026;8.712;2023-05-07T09:34:31;1.13;;;0.95;;
41677;SDS011;27364;49.026;8.712;2023-05-07T09:37:01;0.68;;;0.60;;
41677;SDS011;27364;49.026;8.712;2023-05-07T09:39:38;0.88;;;0.52;;
41677;SDS011;27364;49.026;8.712;2023-05-07T09:44:31;4.10;;;1.38;;
41677;SDS011;27364;49.026;8.712;2023-05-07T09:46:57;0.75;;;0.65;;
41677;SDS011;27364;49.026;8.712;2023-05-07T09:49:25;1.52;;;0.82;;
41677;SDS011;27364;49.026;8.712;2023-05-07T09:51:54;2.67;;;0.75;;
41677;SDS011;27364;49.026;8.712;2023-05-07T09:54:21;1.08;;;0.80;;
41677;SDS011;27364;49.026;8.712;2023-05-07T09:56:50;1.75;;;1.13;;
41677;SDS011;27364;49.026;8.712;2023-05-07T09:59:17;2.03;;;0.93;;
41677;SDS011;27364;49.026;8.712;2023-05-07T10:01:45;8.80;;;1.27;;
41677;SDS011;27364;49.026;8.712;2023-05-07T10:04:10;1.75;;;0.60;;
41677;SDS011;27364;49.026;8.712;2023-05-07T10:06:37;1.15;;;0.85;;
41677;SDS011;27364;49.026;8.712;2023-05-07T10:09:03;1.13;;;0.88;;
41677;SDS011;27364;49.026;8.712;2023-05-07T10:11:33;1.70;;;1.15;;
41677;SDS011;27364;49.026;8.712;2023-05-07T10:14:00;1.35;;;0.98;;
41677;SDS011;27364;49.026;8.712;2023-05-07T10:16:27;1.02;;;0.73;;
41677;SDS011;27364;49.026;8.712;2023-05-07T10:18:56;1.75;;;1.05;;
41677;SDS011;27364;49.026;8.712;2023-05-07T10:21:22;1.00;;;0.88;;
41677;SDS011;27364;49.026;8.712;2023-05-07T10:23:58;1.63;;;1.00;;
41677;SDS011;27364;49.026;8.712;2023-05-07T10:26:35;1.15;;;0.93;;
41677;SDS011;27364;49.026;8.712;2023-05-07T10:30:07;3.63;;;1.35;;
41677;SDS011;27364;49.026;8.712;2023-05-07T10:34:43;5.15;;;1.42;;
41677;SDS011;27364;49.026;8.712;2023-05-07T10:37:12;1.70;;;0.65;;
41677;SDS011;27364;49.026;8.712;2023-05-07T10:39:37;5.35;;;1.40;;
41677;SDS011;27364;49.026;8.712;2023-05-07T10:42:10;0.75;;;0.68;;
41677;SDS011;27364;49.026;8.712;2023-05-07T10:44:36;1.67;;;1.08;;
41677;SDS011;27364;49.026;8.712;2023-05-07T10:47:20;1.70;;;0.90;;
41677;SDS011;27364;49.026;8.712;2023-05-07T10:54:40;3.80;;;1.77;;
41677;SDS011;27364;49.026;8.712;2023-05-07T10:57:55;4.10;;;0.98;;
41677;SDS011;27364;49.026;8.712;2023-05-07T10:59:58;1.80;;;1.10;;
41677;SDS011;27364;49.026;8.712;2023-05-07T11:02:42;3.25;;;1.20;;
41677;SDS011;27364;49.026;8.712;2023-05-07T11:05:25;1.25;;;0.90;;
41677;SDS011;27364;49.026;8.712;2023-05-07T11:07:55;1.27;;;1.08;;
41677;SDS011;27364;49.026;8.712;2023-05-07T11:13:14;1.92;;;1.05;;
41677;SDS011;27364;49.026;8.712;2023-05-07T11:15:41;1.23;;;0.85;;
41677;SDS011;27364;49.026;8.712;2023-05-07T11:18:09;2.30;;;1.10;;
41677;SDS011;27364;49.026;8.712;2023-05-07T11:20:55;1.17;;;0.93;;
41677;SDS011;27364;49.026;8.712;2023-05-07T11:28:36;1.58;;;0.95;;
41677;SDS011;27364;49.026;8.712;2023-05-07T11:31:03;1.23;;;0.80;;
41677;SDS011;27364;49.026;8.712;2023-05-07T11:33:29;1.05;;;0.80;;
41677;SDS011;27364;49.026;8.712;2023-05-07T11:36:02;0.80;;;0.60;;
41677;SDS011;27364;49.026;8.712;2023-05-07T11:38:35;8.20;;;0.95;;
41677;SDS011;27364;49.026;8.712;2023-05-07T11:41:02;1.35;;;0.88;;
41677;SDS011;27364;49.026;8.712;2023-05-07T11:43:29;0.98;;;0.68;;
41677;SDS011;27364;49.026;8.712;2023-05-07T11:45:58;1.20;;;1.00;;
41677;SDS011;27364;49.026;8.712;2023-05-07T11:48:34;1.98;;;0.85;;
41677;SDS011;27364;49.026;8.712;2023-05-07T11:51:00;1.05;;;0.75;;
41677;SDS011;27364;49.026;8.712;2023-05-07T11:53:28;1.92;;;1.10;;
41677;SDS011;27364;49.026;8.712;2023-05-07T11:56:05;6.07;;;1.63;;
41677;SDS011;27364;49.026;8.712;2023-05-07T11:58:32;1.38;;;0.90;;
41677;SDS011;27364;49.026;8.712;2023-05-07T12:00:58;0.80;;;0.70;;
41677;SDS011;27364;49.026;8.712;2023-05-07T12:03:23;0.98;;;0.82;;
41677;SDS011;27364;49.026;8.712;2023-05-07T12:05:49;1.63;;;1.20;;
41677;SDS011;27364;49.026;8.712;2023-05-07T12:08:15;1.45;;;1.05;;
41677;SDS011;27364;49.026;8.712;2023-05-07T12:10:41;2.25;;;1.00;;
41677;SDS011;27364;49.026;8.712;2023-05-07T12:15:45;2.53;;;1.15;;
41677;SDS011;27364;49.026;8.712;2023-05-07T12:18:12;0.60;;;0.60;;
41677;SDS011;27364;49.026;8.712;2023-05-07T12:20:38;3.22;;;1.17;;
41677;SDS011;27364;49.026;8.712;2023-05-07T12:23:04;1.17;;;0.82;;
41677;SDS011;27364;49.026;8.712;2023-05-07T12:25:37;0.93;;;0.80;;
41677;SDS011;27364;49.026;8.712;2023-05-07T12:28:04;3.08;;;1.30;;
41677;SDS011;27364;49.026;8.712;2023-05-07T12:30:37;1.13;;;0.83;;
41677;SDS011;27364;49.026;8.712;2023-05-07T12:33:03;1.70;;;1.02;;
41677;SDS011;27364;49.026;8.712;2023-05-07T12:35:29;1.10;;;0.90;;
41677;SDS011;27364;49.026;8.712;2023-05-07T12:37:56;0.80;;;0.77;;
41677;SDS011;27364;49.026;8.712;2023-05-07T12:40:24;0.80;;;0.80;;
41677;SDS011;27364;49.026;8.712;2023-05-07T12:43:00;1.10;;;0.77;;
41677;SDS011;27364;49.026;8.712;2023-05-07T12:45:26;1.00;;;0.80;;
41677;SDS011;27364;49.026;8.712;2023-05-07T12:47:51;1.05;;;0.95;;
41677;SDS011;27364;49.026;8.712;2023-05-07T12:50:17;0.68;;;0.68;;
41677;SDS011;27364;49.026;8.712;2023-05-07T12:52:45;0.52;;;0.52;;
41677;SDS011;27364;49.026;8.712;2023-05-07T12:55:16;1.20;;;0.88;;
41677;SDS011;27364;49.026;8.712;2023-05-07T12:57:43;1.83;;;0.82;;
41677;SDS011;27364;49.026;8.712;2023-05-07T13:00:12;0.85;;;0.80;;
41677;SDS011;27364;49.026;8.712;2023-05-07T13:02:39;0.60;;;0.60;;
41677;SDS011;27364;49.026;8.712;2023-05-07T13:05:06;1.10;;;0.85;;
41677;SDS011;27364;49.026;8.712;2023-05-07T13:07:33;0.95;;;0.77;;
41677;SDS011;27364;49.026;8.712;2023-05-07T13:09:58;1.15;;;1.02;;
41677;SDS011;27364;49.026;8.712;2023-05-07T13:12:24;1.38;;;0.90;;
41677;SDS011;27364;49.026;8.712;2023-05-07T13:14:49;1.80;;;1.00;;
41677;SDS011;27364;49.026;8.712;2023-05-07T13:17:16;1.63;;;1.17;;
41677;SDS011;27364;49.026;8.712;2023-05-07T13:19:43;0.90;;;0.77;;
41677;SDS011;27364;49.026;8.712;2023-05-07T13:22:09;0.70;;;0.70;;
41677;SDS011;27364;49.026;8.712;2023-05-07T13:24:34;1.20;;;0.93;;
41677;SDS011;27364;49.026;8.712;2023-05-07T13:27:00;1.05;;;0.75;;
41677;SDS011;27364;49.026;8.712;2023-05-07T13:29:25;2.47;;;1.20;;
41677;SDS011;27364;49.026;8.712;2023-05-07T13:31:55;0.70;;;0.70;;
41677;SDS011;27364;49.026;8.712;2023-05-07T13:34:21;1.13;;;0.93;;
41677;SDS011;27364;49.026;8.712;2023-05-07T13:36:47;1.25;;;1.10;;
41677;SDS011;27364;49.026;8.712;2023-05-07T13:39:12;1.00;;;0.90;;
41677;SDS011;27364;49.026;8.712;2023-05-07T13:41:38;1.23;;;1.02;;
41677;SDS011;27364;49.026;8.712;2023-05-07T13:44:03;6.63;;;1.30;;
41677;SDS011;27364;49.026;8.712;2023-05-07T13:46:29;1.42;;;0.95;;
41677;SDS011;27364;49.026;8.712;2023-05-07T13:48:55;6.15;;;1.65;;
41677;SDS011;27364;49.026;8.712;2023-05-07T13:51:21;1.90;;;1.48;;
41677;SDS011;27364;49.026;8.712;2023-05-07T13:53:47;1.80;;;1.27;;
41677;SDS011;27364;49.026;8.712;2023-05-07T13:56:12;2.92;;;1.27;;
41677;SDS011;27364;49.026;8.712;2023-05-07T13:58:39;8.27;;;1.25;;
41677;SDS011;27364;49.026;8.712;2023-05-07T14:01:05;2.00;;;1.50;;
41677;SDS011;27364;49.026;8.712;2023-05-07T14:03:30;3.42;;;1.60;;
41677;SDS011;27364;49.026;8.712;2023-05-07T14:05:57;2.83;;;0.97;;
41677;SDS011;27364;49.026;8.712;2023-05-07T14:08:24;7.50;;;1.20;;
41677;SDS011;27364;49.026;8.712;2023-05-07T14:10:50;15.45;;;1.65;;
41677;SDS011;27364;49.026;8.712;2023-05-07T14:13:16;3.05;;;0.88;;
41677;SDS011;27364;49.026;8.712;2023-05-07T14:15:42;0.77;;;0.77;;
41677;SDS011;27364;49.026;8.712;2023-05-07T14:18:11;1.75;;;1.02;;
41677;SDS011;27364;49.026;8.712;2023-05-07T14:20:37;1.80;;;1.08;;
41677;SDS011;27364;49.026;8.712;2023-05-07T14:23:03;3.00;;;1.00;;
41677;SDS011;27364;49.026;8.712;2023-05-07T14:25:28;1.92;;;1.27;;
41677;SDS011;27364;49.026;8.712;2023-05-07T14:27:54;2.35;;;1.08;;
41677;SDS011;27364;49.026;8.712;2023-05-07T14:30:19;0.65;;;0.65;;
41677;SDS011;27364;49.026;8.712;2023-05-07T14:32:47;1.27;;;1.05;;
41677;SDS011;27364;49.026;8.712;2023-05-07T14:35:12;0.55;;;0.55;;
41677;SDS011;27364;49.026;8.712;2023-05-07T14:37:38;1.00;;;0.90;;
41677;SDS011;27364;49.026;8.712;2023-05-07T14:40:05;0.73;;;0.68;;
41677;SDS011;27364;49.026;8.712;2023-05-07T14:42:31;3.10;;;1.10;;
41677;SDS011;27364;49.026;8.712;2023-05-07T14:44:56;1.83;;;1.40;;
41677;SDS011;27364;49.026;8.712;2023-05-07T14:47:22;5.38;;;1.65;;
41677;SDS011;27364;49.026;8.712;2023-05-07T14:49:47;0.80;;;0.77;;
41677;SDS011;27364;49.026;8.712;2023-05-07T14:52:13;1.10;;;0.98;;
41677;SDS011;27364;49.026;8.712;2023-05-07T14:54:38;1.73;;;1.20;;
41677;SDS011;27364;49.026;8.712;2023-05-07T14:57:05;2.70;;;1.55;;
41677;SDS011;27364;49.026;8.712;2023-05-07T14:59:31;1.43;;;1.17;;
41677;SDS011;27364;49.026;8.712;2023-05-07T15:01:57;0.75;;;0.75;;
41677;SDS011;27364;49.026;8.712;2023-05-07T15:04:23;1.85;;;1.10;;